Terre Haute Regional (HUF)

 

Airport Diagram
Current Weather/Forecast (VFR Conditions)
METAR KHUF 182353Z 26004KT 10SM FEW055 BKN075 OVC090 12/06 A2989 RMK AO2 RAB33E45 SLP122 P0000 60000 T01220061 10183 20122 58002
TAF KHUF 182322Z 1900/1924 34005KT P6SM VCSH SCT040 BKN080 FM190200 VRB03KT P6SM BKN100 FM191900 25010G18KT P6SM SCT070

Airport Information

All Charts
General
Chart Name View
AIRPORT DIAGRAM
AIRPORT DIAGRAM
TAKEOFF MINIMUMS
ALTERNATE MINIMUMS
RADAR MINIMUMS
TAKEOFF MINIMUMS
ALTERNATE MINIMUMS
RADAR MINIMUMS
LAHSO
LAHSO

Approaches
Chart Name Download
ILS OR LOC RWY 05
RNAV (GPS) RWY 05
RNAV (GPS) RWY 14
RNAV (GPS) RWY 23
RNAV (GPS) RWY 32
VOR RWY 05
VOR RWY 23
ILS OR LOC RWY 05
RNAV (GPS) RWY 05
RNAV (GPS) RWY 14
RNAV (GPS) RWY 23
RNAV (GPS) RWY 32
VOR RWY 05
VOR RWY 23


Airport Statistics
Departures Arrivals Local
All Collected Stats since June 2016: 88 75 66
2021 Stats: 8 10 0
April Stats: 2 1 0

Inbound Traffic (Arrivals) - 0

No inbound traffic.


Outbound Traffic (Departures) - 0

No outbound traffic.


Local Traffic (Pattern) - 0

No local traffic.